createdAt,value
2018-03-07T00:00:01.152Z,98553.90
2018-03-07T00:02:28.541Z,98555.73
2018-03-07T00:04:55.955Z,98550.48
2018-03-07T00:07:23.371Z,98547.36
2018-03-07T00:09:50.872Z,98548.59
2018-03-07T00:12:18.255Z,98551.50
2018-03-07T00:14:45.786Z,98550.05
2018-03-07T00:17:13.247Z,98546.42
2018-03-07T00:19:40.685Z,98549.92
2018-03-07T00:22:08.075Z,98548.73
2018-03-07T00:24:35.506Z,98549.48
2018-03-07T00:27:02.903Z,98544.26
2018-03-07T00:29:30.359Z,98547.76
2018-03-07T00:31:57.770Z,98546.71
2018-03-07T00:34:25.171Z,98543.48
2018-03-07T00:36:52.554Z,98542.51
2018-03-07T00:39:20.004Z,98546.48
2018-03-07T00:41:47.435Z,98548.67
2018-03-07T00:44:14.891Z,98545.06
2018-03-07T00:46:42.287Z,98552.68
2018-03-07T00:49:09.695Z,98548.61
2018-03-07T00:51:37.086Z,98546.56
2018-03-07T00:54:04.503Z,98542.27
2018-03-07T00:56:31.890Z,98552.98
2018-03-07T00:58:59.317Z,98543.61
2018-03-07T01:01:26.740Z,98545.11
2018-03-07T01:03:54.200Z,98545.34
2018-03-07T01:06:21.590Z,98543.84
2018-03-07T01:08:49.085Z,98544.70
2018-03-07T01:11:16.494Z,98551.17
2018-03-07T01:13:43.896Z,98548.91
2018-03-07T01:16:11.398Z,98543.33
2018-03-07T01:18:38.828Z,98541.16
2018-03-07T01:21:06.220Z,98542.94
2018-03-07T01:23:33.657Z,98547.18
2018-03-07T01:26:01.126Z,98544.73
2018-03-07T01:28:28.548Z,98542.66
2018-03-07T01:30:55.951Z,98541.25
2018-03-07T01:33:23.350Z,98539.34
2018-03-07T01:35:50.739Z,98536.63
2018-03-07T01:38:18.138Z,98539.50
2018-03-07T01:40:45.530Z,98534.59
2018-03-07T01:43:12.961Z,98535.67
2018-03-07T01:45:40.362Z,98541.61
2018-03-07T01:48:07.787Z,98537.33
2018-03-07T01:50:35.267Z,98543.46
2018-03-07T01:53:02.722Z,98535.26
2018-03-07T01:55:30.919Z,98533.80
2018-03-07T01:57:58.314Z,98539.05
2018-03-07T02:00:25.704Z,98532.25
2018-03-07T02:02:53.097Z,98528.36
2018-03-07T02:05:20.488Z,98534.24
2018-03-07T02:07:47.911Z,98534.21
2018-03-07T02:12:48.183Z,98528.73
2018-03-07T02:15:15.669Z,98524.25
2018-03-07T02:17:43.069Z,98524.37
2018-03-07T02:20:10.454Z,98525.81
2018-03-07T02:22:38.306Z,98530.97
2018-03-07T02:25:05.759Z,98524.52
2018-03-07T02:27:33.150Z,98525.98
2018-03-07T02:30:00.660Z,98529.13
2018-03-07T02:32:28.042Z,98522.58
2018-03-07T02:34:55.467Z,98520.84
2018-03-07T02:37:22.901Z,98527.80
2018-03-07T02:39:50.430Z,98523.36
2018-03-07T02:42:17.815Z,98523.20
2018-03-07T02:44:45.214Z,98520.00
2018-03-07T02:47:12.616Z,98516.23
2018-03-07T02:49:40.038Z,98519.56
2018-03-07T02:52:07.422Z,98517.72
2018-03-07T02:54:34.826Z,98516.70
2018-03-07T02:57:02.218Z,98517.85
2018-03-07T02:59:29.723Z,98518.67
2018-03-07T03:01:57.178Z,98517.03
2018-03-07T03:04:24.576Z,98516.53
2018-03-07T03:06:51.987Z,98522.14
2018-03-07T03:09:19.385Z,98517.64
2018-03-07T03:11:46.775Z,98520.78
2018-03-07T03:14:14.171Z,98523.92
2018-03-07T03:16:41.567Z,98526.51
2018-03-07T03:19:08.974Z,98523.87
2018-03-07T03:21:36.425Z,98514.80
2018-03-07T03:24:03.870Z,98522.49
2018-03-07T03:26:31.262Z,98511.50
2018-03-07T03:28:58.674Z,98512.78
2018-03-07T03:31:26.083Z,98514.16
2018-03-07T03:33:53.477Z,98514.46
2018-03-07T03:36:20.951Z,98520.99
2018-03-07T03:38:48.358Z,98520.05
2018-03-07T03:41:15.854Z,98522.70
2018-03-07T03:43:43.254Z,98525.34
2018-03-07T03:46:10.644Z,98519.23
2018-03-07T03:48:38.042Z,98521.75
2018-03-07T03:51:05.486Z,98527.04
2018-03-07T03:53:32.934Z,98526.23
2018-03-07T03:56:00.401Z,98530.34
2018-03-07T03:58:27.794Z,98530.03
2018-03-07T04:00:55.199Z,98532.02
2018-03-07T04:03:22.601Z,98539.45
2018-03-07T04:05:49.986Z,98536.21
2018-03-07T04:08:17.470Z,98541.08
2018-03-07T04:10:44.869Z,98536.13
2018-03-07T04:13:12.275Z,98529.39
2018-03-07T04:15:39.669Z,98528.05
2018-03-07T04:18:07.090Z,98527.41
2018-03-07T04:20:34.553Z,98527.09
2018-03-07T04:23:01.960Z,98533.84
2018-03-07T04:25:29.379Z,98534.64
2018-03-07T04:27:56.727Z,98531.56
2018-03-07T04:30:24.138Z,98535.00
2018-03-07T04:32:51.634Z,98532.63
2018-03-07T04:35:19.090Z,98533.30
2018-03-07T04:37:46.479Z,98531.48
2018-03-07T04:40:13.870Z,98532.19
2018-03-07T04:42:41.271Z,98538.41
2018-03-07T04:45:08.675Z,98541.34
2018-03-07T04:47:36.071Z,98540.99
2018-03-07T04:50:03.472Z,98536.06
2018-03-07T04:52:30.859Z,98540.84
2018-03-07T04:54:58.260Z,98539.25
2018-03-07T04:57:25.763Z,98537.08
2018-03-07T04:59:53.163Z,98545.42
2018-03-07T05:02:20.603Z,98546.70
2018-03-07T05:04:47.995Z,98541.86
2018-03-07T05:07:15.490Z,98541.80
2018-03-07T05:09:42.884Z,98543.88
2018-03-07T05:12:10.299Z,98549.19
2018-03-07T05:14:37.699Z,98540.91
2018-03-07T05:17:05.095Z,98542.88
2018-03-07T05:19:32.529Z,98545.81
2018-03-07T05:21:59.915Z,98547.00
2018-03-07T05:24:27.323Z,98544.19
2018-03-07T05:26:54.734Z,98542.12
2018-03-07T05:29:22.130Z,98548.48
2018-03-07T05:31:49.522Z,98544.55
2018-03-07T05:34:16.953Z,98541.56
2018-03-07T05:36:44.337Z,98545.90
2018-03-07T05:39:11.741Z,98543.41
2018-03-07T05:41:39.240Z,98543.77
2018-03-07T05:44:06.679Z,98548.02
2018-03-07T05:46:34.066Z,98538.22
2018-03-07T05:49:01.470Z,98543.09
2018-03-07T05:51:28.857Z,98552.97
2018-03-07T05:53:56.260Z,98557.58
2018-03-07T05:56:23.754Z,98561.31
2018-03-07T05:58:51.167Z,98557.84
2018-03-07T06:01:18.586Z,98561.37
2018-03-07T06:03:45.986Z,98563.27
2018-03-07T06:06:13.381Z,98566.14
2018-03-07T06:08:40.826Z,98570.98
2018-03-07T06:11:08.307Z,98575.58
2018-03-07T06:13:35.723Z,98572.75
2018-03-07T06:16:03.118Z,98569.61
2018-03-07T06:18:30.546Z,98580.48
2018-03-07T06:20:57.943Z,98578.30
2018-03-07T06:23:25.326Z,98584.23
2018-03-07T06:25:52.814Z,98583.05
2018-03-07T06:28:20.217Z,98593.83
2018-03-07T06:30:47.607Z,98594.19
2018-03-07T06:33:15.010Z,98603.05
2018-03-07T06:35:42.435Z,98593.70
2018-03-07T06:38:09.822Z,98603.17
2018-03-07T06:40:37.210Z,98611.24
2018-03-07T06:43:04.602Z,98599.66
2018-03-07T06:45:32.028Z,98613.05
2018-03-07T06:47:59.427Z,98605.65
2018-03-07T06:50:26.863Z,98612.42
2018-03-07T06:52:54.273Z,98606.69
2018-03-07T06:55:21.783Z,98612.58
2018-03-07T06:57:49.176Z,98617.72
2018-03-07T07:00:16.618Z,98614.65
2018-03-07T07:02:43.990Z,98616.58
2018-03-07T07:05:11.383Z,98629.43
2018-03-07T07:07:38.783Z,98622.08
2018-03-07T07:10:06.174Z,98622.41
2018-03-07T07:12:33.571Z,98626.86
2018-03-07T07:15:01.014Z,98627.73
2018-03-07T07:17:28.474Z,98633.07
2018-03-07T07:19:55.930Z,98634.05
2018-03-07T07:22:23.314Z,98636.37
2018-03-07T07:24:50.741Z,98636.22
2018-03-07T07:27:18.131Z,98642.99
2018-03-07T07:29:45.555Z,98641.85
2018-03-07T07:34:40.198Z,98642.84
2018-03-07T07:37:07.589Z,98644.63
2018-03-07T07:39:34.983Z,98647.06
2018-03-07T07:42:02.386Z,98646.91
2018-03-07T07:44:29.780Z,98650.39
2018-03-07T07:46:57.229Z,98651.91
2018-03-07T07:49:24.632Z,98651.50
2018-03-07T07:51:52.024Z,98657.13
2018-03-07T07:54:19.422Z,98661.53
2018-03-07T07:56:46.807Z,98665.89
2018-03-07T07:59:14.199Z,98665.81
2018-03-07T08:01:41.596Z,98660.98
2018-03-07T08:04:09.010Z,98658.47
2018-03-07T08:06:36.470Z,98660.13
2018-03-07T08:09:03.858Z,98654.06
2018-03-07T08:11:31.254Z,98661.67
2018-03-07T08:13:58.655Z,98662.02
2018-03-07T08:16:26.094Z,98665.81
2018-03-07T08:18:53.478Z,98665.53
2018-03-07T08:21:21.436Z,98665.13
2018-03-07T08:23:48.825Z,98659.95
2018-03-07T08:26:16.218Z,98666.56
2018-03-07T08:28:43.611Z,98668.22
2018-03-07T08:31:11.050Z,98675.19
2018-03-07T08:33:38.494Z,98679.78
2018-03-07T08:36:05.905Z,98679.44
2018-03-07T08:38:33.289Z,98682.66
2018-03-07T08:41:00.688Z,98680.81
2018-03-07T08:43:28.080Z,98685.76
2018-03-07T08:45:55.490Z,98687.40
2018-03-07T08:48:22.891Z,98679.58
2018-03-07T08:50:50.387Z,98683.44
2018-03-07T08:53:17.782Z,98684.33
2018-03-07T08:55:45.186Z,98694.17
2018-03-07T08:58:12.573Z,98687.77
2018-03-07T09:00:40.008Z,98694.57
2018-03-07T09:03:07.460Z,98689.38
2018-03-07T09:05:34.850Z,98699.82
2018-03-07T09:08:02.243Z,98699.96
2018-03-07T09:10:29.642Z,98698.94
2018-03-07T09:12:57.841Z,98695.30
2018-03-07T09:15:25.224Z,98706.06
2018-03-07T09:17:52.616Z,98702.38
2018-03-07T09:20:20.021Z,98699.86
2018-03-07T09:22:47.407Z,98698.84
2018-03-07T09:25:14.916Z,98705.08
2018-03-07T09:27:42.307Z,98709.63
2018-03-07T09:30:09.707Z,98705.69
2018-03-07T09:32:37.103Z,98709.98
2018-03-07T09:35:04.513Z,98715.10
2018-03-07T09:37:31.961Z,98712.73
2018-03-07T09:39:59.366Z,98719.69
2018-03-07T09:42:26.811Z,98726.09
2018-03-07T09:44:56.941Z,98717.92
2018-03-07T09:47:24.535Z,98719.94
2018-03-07T09:49:51.990Z,98715.13
2018-03-07T09:52:19.390Z,98721.85
2018-03-07T09:54:46.806Z,98716.73
2018-03-07T09:57:14.262Z,98715.08
2018-03-07T09:59:41.655Z,98723.78
2018-03-07T10:02:09.068Z,98719.55
2018-03-07T10:04:36.456Z,98721.23
2018-03-07T10:07:03.913Z,98718.45
2018-03-07T10:09:31.266Z,98728.37
2018-03-07T10:11:58.658Z,98725.97
2018-03-07T10:14:26.151Z,98724.41
2018-03-07T10:16:55.258Z,98726.23
2018-03-07T10:19:24.680Z,98726.26
2018-03-07T10:21:52.178Z,98729.65
2018-03-07T10:24:19.751Z,98735.41
2018-03-07T10:26:47.142Z,98733.25
2018-03-07T10:29:14.594Z,98731.59
2018-03-07T10:31:42.038Z,98728.67
2018-03-07T10:34:09.510Z,98728.81
2018-03-07T10:36:36.899Z,98728.81
2018-03-07T10:39:04.284Z,98727.96
2018-03-07T10:41:31.794Z,98733.14
2018-03-07T10:43:59.200Z,98735.20
2018-03-07T10:46:26.600Z,98738.83
2018-03-07T10:48:54.032Z,98739.81
2018-03-07T10:51:21.478Z,98740.23
2018-03-07T10:53:48.961Z,98738.05
2018-03-07T10:56:16.395Z,98737.05
2018-03-07T10:58:43.786Z,98735.80
2018-03-07T11:01:11.259Z,98739.31
2018-03-07T11:03:38.727Z,98741.11
2018-03-07T11:06:06.117Z,98737.89
2018-03-07T11:08:33.507Z,98744.72
2018-03-07T11:11:01.691Z,98746.46
2018-03-07T11:13:29.093Z,98750.50
2018-03-07T11:15:56.492Z,98744.05
2018-03-07T11:18:23.932Z,98751.47
2018-03-07T11:20:51.280Z,98746.05
2018-03-07T11:23:18.772Z,98745.00
2018-03-07T11:25:46.158Z,98743.32
2018-03-07T11:28:13.600Z,98752.08
2018-03-07T11:30:41.039Z,98748.00
2018-03-07T11:33:08.499Z,98747.94
2018-03-07T11:35:35.955Z,98746.94
2018-03-07T11:38:03.356Z,98744.19
2018-03-07T11:40:30.746Z,98752.65
2018-03-07T11:42:58.138Z,98748.27
2018-03-07T11:45:25.536Z,98751.37
2018-03-07T11:47:53.031Z,98750.19
2018-03-07T11:50:20.498Z,98752.05
2018-03-07T11:52:47.911Z,98756.45
2018-03-07T11:55:15.301Z,98755.93
2018-03-07T11:57:42.695Z,98752.77
2018-03-07T12:00:11.096Z,98757.59
2018-03-07T12:02:38.486Z,98754.20
2018-03-07T12:05:05.882Z,98756.00
2018-03-07T12:07:33.289Z,98751.86
2018-03-07T12:10:00.670Z,98746.30
2018-03-07T12:12:28.112Z,98743.58
2018-03-07T12:14:55.508Z,98745.03
2018-03-07T12:17:22.933Z,98747.47
2018-03-07T12:19:50.318Z,98753.04
2018-03-07T12:22:17.740Z,98756.21
2018-03-07T12:24:45.143Z,98750.31
2018-03-07T12:27:12.542Z,98741.33
2018-03-07T12:29:39.998Z,98739.79
2018-03-07T12:32:07.475Z,98746.22
2018-03-07T12:34:34.919Z,98746.16
2018-03-07T12:37:02.367Z,98740.28
2018-03-07T12:39:29.826Z,98749.23
2018-03-07T12:41:57.282Z,98745.27
2018-03-07T12:44:25.450Z,98748.83
2018-03-07T12:46:52.943Z,98747.28
2018-03-07T12:49:20.358Z,98755.97
2018-03-07T12:51:47.837Z,98750.02
2018-03-07T12:54:15.297Z,98743.78
2018-03-07T12:56:43.135Z,98739.22
2018-03-07T12:59:10.526Z,98745.50
2018-03-07T13:01:37.934Z,98736.77
2018-03-07T13:04:05.322Z,98739.79
2018-03-07T13:06:32.792Z,98740.26
2018-03-07T13:09:00.162Z,98737.31
2018-03-07T13:11:27.570Z,98732.28
2018-03-07T13:13:55.063Z,98743.51
2018-03-07T13:16:22.477Z,98738.00
2018-03-07T13:18:49.954Z,98746.77
2018-03-07T13:21:17.415Z,98744.16
2018-03-07T13:23:44.825Z,98747.09
2018-03-07T13:26:12.223Z,98749.31
2018-03-07T13:28:39.658Z,98748.41
2018-03-07T13:31:07.048Z,98748.92
2018-03-07T13:33:34.446Z,98752.02
2018-03-07T13:36:01.877Z,98755.50
2018-03-07T13:38:29.324Z,98754.64
2018-03-07T13:40:56.767Z,98748.02
2018-03-07T13:43:24.171Z,98750.36
2018-03-07T13:45:51.579Z,98744.59
2018-03-07T13:48:19.046Z,98754.56
2018-03-07T13:50:46.537Z,98751.42
2018-03-07T13:53:13.872Z,98753.25
2018-03-07T13:55:41.426Z,98756.81
2018-03-07T13:58:08.869Z,98756.34
2018-03-07T14:00:36.326Z,98760.82
2018-03-07T14:03:03.769Z,98767.97
2018-03-07T14:05:31.167Z,98764.61
2018-03-07T14:07:58.559Z,98772.02
2018-03-07T14:10:26.019Z,98770.32
2018-03-07T14:12:53.414Z,98778.52
2018-03-07T14:15:20.824Z,98774.27
2018-03-07T14:17:48.284Z,98771.41
2018-03-07T14:20:15.634Z,98780.19
2018-03-07T14:22:43.028Z,98776.20
2018-03-07T14:25:10.418Z,98779.48
2018-03-07T14:30:10.578Z,98771.43
2018-03-07T14:32:38.010Z,98774.62
2018-03-07T14:35:05.967Z,98772.82
2018-03-07T14:37:33.362Z,98776.67
2018-03-07T14:40:00.747Z,98769.25
2018-03-07T14:42:28.942Z,98768.92
2018-03-07T14:44:56.331Z,98773.33
2018-03-07T14:47:23.737Z,98775.76
2018-03-07T14:49:51.129Z,98788.05
2018-03-07T14:52:18.534Z,98788.77
2018-03-07T14:54:45.926Z,98786.39
2018-03-07T14:57:13.319Z,98789.48
2018-03-07T14:59:41.251Z,98792.97
2018-03-07T15:02:08.643Z,98800.88
2018-03-07T15:04:36.058Z,98796.56
2018-03-07T15:07:03.439Z,98798.27
2018-03-07T15:09:30.844Z,98794.97
2018-03-07T15:11:58.236Z,98795.01
2018-03-07T15:14:25.640Z,98803.69
2018-03-07T15:16:53.019Z,98801.31
2018-03-07T15:19:20.415Z,98806.31
2018-03-07T15:21:47.842Z,98806.39
2018-03-07T15:24:15.234Z,98797.32
2018-03-07T15:26:42.623Z,98794.52
2018-03-07T15:29:10.015Z,98798.42
2018-03-07T15:31:37.403Z,98801.15
2018-03-07T15:34:04.830Z,98801.74
2018-03-07T15:36:32.282Z,98808.75
2018-03-07T15:38:59.671Z,98817.34
2018-03-07T15:41:27.109Z,98813.97
2018-03-07T15:43:54.508Z,98812.76
2018-03-07T15:46:22.010Z,98819.45
2018-03-07T15:48:49.398Z,98825.39
2018-03-07T15:51:16.786Z,98821.16
2018-03-07T15:53:44.179Z,98825.55
2018-03-07T15:56:11.652Z,98829.91
2018-03-07T15:58:39.042Z,98838.20
2018-03-07T16:01:06.442Z,98834.97
2018-03-07T16:03:33.831Z,98836.03
2018-03-07T16:06:01.233Z,98831.87
2018-03-07T16:08:29.134Z,98836.33
2018-03-07T16:10:56.523Z,98830.52
2018-03-07T16:13:23.922Z,98828.09
2018-03-07T16:15:51.302Z,98832.87
2018-03-07T16:18:18.734Z,98833.39
2018-03-07T16:20:46.118Z,98832.20
2018-03-07T16:23:13.517Z,98833.03
2018-03-07T16:25:41.013Z,98839.42
2018-03-07T16:28:08.483Z,98835.69
2018-03-07T16:30:35.879Z,98836.20
2018-03-07T16:33:03.271Z,98840.98
2018-03-07T16:35:30.654Z,98837.46
2018-03-07T16:37:58.082Z,98830.34
2018-03-07T16:40:25.466Z,98835.64
2018-03-07T16:42:52.864Z,98832.11
2018-03-07T16:45:20.355Z,98830.62
2018-03-07T16:47:47.830Z,98835.78
2018-03-07T16:50:15.203Z,98834.86
2018-03-07T16:52:42.587Z,98840.66
2018-03-07T16:55:09.979Z,98841.58
2018-03-07T16:57:37.384Z,98843.11
2018-03-07T17:00:04.789Z,98849.03
2018-03-07T17:02:32.185Z,98857.54
2018-03-07T17:04:59.599Z,98857.67
2018-03-07T17:07:27.082Z,98855.09
2018-03-07T17:09:54.585Z,98851.34
2018-03-07T17:12:21.967Z,98852.27
2018-03-07T17:14:49.493Z,98856.45
2018-03-07T17:17:16.864Z,98855.63
2018-03-07T17:19:44.303Z,98859.65
2018-03-07T17:22:11.724Z,98860.12
2018-03-07T17:24:39.206Z,98863.84
2018-03-07T17:27:07.264Z,98873.84
2018-03-07T17:29:34.727Z,98875.05
2018-03-07T17:32:02.142Z,98877.84
2018-03-07T17:34:29.544Z,98881.02
2018-03-07T17:36:56.947Z,98881.27
2018-03-07T17:39:24.351Z,98883.34
2018-03-07T17:41:51.802Z,98889.46
2018-03-07T17:44:19.191Z,98892.40
2018-03-07T17:46:46.571Z,98892.64
2018-03-07T17:49:14.074Z,98894.30
2018-03-07T17:51:41.463Z,98895.95
2018-03-07T17:54:08.883Z,98901.34
2018-03-07T17:56:36.279Z,98904.25
2018-03-07T17:59:03.675Z,98901.03
2018-03-07T18:01:31.066Z,98900.86
2018-03-07T18:03:58.522Z,98899.69
2018-03-07T18:06:25.978Z,98901.72
2018-03-07T18:08:53.412Z,98902.28
2018-03-07T18:11:20.795Z,98904.29
2018-03-07T18:13:48.229Z,98905.31
2018-03-07T18:16:15.662Z,98904.48
2018-03-07T18:18:43.121Z,98905.87
2018-03-07T18:21:10.530Z,98900.05
2018-03-07T18:23:37.902Z,98898.47
2018-03-07T18:26:05.295Z,98899.48
2018-03-07T18:28:32.704Z,98900.06
2018-03-07T18:31:00.203Z,98896.02
2018-03-07T18:33:27.599Z,98904.52
2018-03-07T18:35:55.010Z,98902.50
2018-03-07T18:38:22.394Z,98900.74
2018-03-07T18:40:49.799Z,98905.22
2018-03-07T18:43:17.190Z,98907.88
2018-03-07T18:45:44.598Z,98905.63
2018-03-07T18:48:11.982Z,98913.24
2018-03-07T18:50:39.394Z,98908.34
2018-03-07T18:53:06.805Z,98906.95
2018-03-07T18:55:34.202Z,98910.33
2018-03-07T18:58:01.593Z,98913.87
2018-03-07T19:00:28.999Z,98912.95
2018-03-07T19:02:56.430Z,98915.92
2018-03-07T19:05:23.821Z,98913.59
2018-03-07T19:07:51.220Z,98919.86
2018-03-07T19:10:18.610Z,98925.77
2018-03-07T19:12:46.063Z,98921.55
2018-03-07T19:15:13.467Z,98923.63
2018-03-07T19:17:40.859Z,98924.78
2018-03-07T19:20:08.273Z,98926.76
2018-03-07T19:22:35.663Z,98930.47
2018-03-07T19:25:03.078Z,98932.32
2018-03-07T19:27:30.577Z,98933.77
2018-03-07T19:29:58.031Z,98940.05
2018-03-07T19:32:25.414Z,98943.72
2018-03-07T19:34:52.819Z,98942.56
2018-03-07T19:37:20.219Z,98939.13
2018-03-07T19:39:47.668Z,98937.56
2018-03-07T19:42:15.067Z,98943.36
2018-03-07T19:44:42.511Z,98946.63
2018-03-07T19:47:09.895Z,98948.39
2018-03-07T19:49:37.372Z,98960.55
2018-03-07T19:52:04.758Z,98958.98
2018-03-07T19:54:32.159Z,98956.37
2018-03-07T19:56:59.550Z,98958.02
2018-03-07T19:59:26.949Z,98953.33
2018-03-07T20:01:54.369Z,98960.96
2018-03-07T20:04:21.777Z,98965.66
2018-03-07T20:06:49.186Z,98959.03
2018-03-07T20:09:16.628Z,98953.47
2018-03-07T20:11:44.041Z,98956.25
2018-03-07T20:14:11.549Z,98962.14
2018-03-07T20:16:38.958Z,98963.48
2018-03-07T20:19:06.350Z,98962.08
2018-03-07T20:21:33.747Z,98964.85
2018-03-07T20:24:01.154Z,98961.84
2018-03-07T20:26:28.580Z,98964.66
2018-03-07T20:28:55.975Z,98960.62
2018-03-07T20:31:23.394Z,98961.77
2018-03-07T20:33:50.903Z,98954.44
2018-03-07T20:36:18.308Z,98967.63
2018-03-07T20:38:45.802Z,98964.52
2018-03-07T20:41:13.254Z,98963.21
2018-03-07T20:43:40.647Z,98968.72
2018-03-07T20:46:08.057Z,98970.16
2018-03-07T20:48:35.472Z,98967.97
2018-03-07T20:51:03.060Z,98974.63
2018-03-07T20:53:30.458Z,98972.94
2018-03-07T20:55:57.842Z,98978.81
2018-03-07T20:58:25.325Z,98967.26
2018-03-07T21:00:52.747Z,98970.36
2018-03-07T21:03:20.141Z,98967.67
2018-03-07T21:05:47.580Z,98972.93
2018-03-07T21:08:14.973Z,98976.44
2018-03-07T21:10:42.830Z,98979.98
2018-03-07T21:13:10.313Z,98973.95
2018-03-07T21:15:37.810Z,98975.76
2018-03-07T21:18:05.276Z,98979.11
2018-03-07T21:20:32.675Z,98976.63
2018-03-07T21:23:00.076Z,98984.27
2018-03-07T21:25:27.487Z,98978.45
2018-03-07T21:27:54.886Z,98979.94
2018-03-07T21:30:22.344Z,98977.89
2018-03-07T21:32:49.715Z,98978.02
2018-03-07T21:35:17.109Z,98982.77
2018-03-07T21:37:44.502Z,98974.02
2018-03-07T21:40:11.911Z,98973.33
2018-03-07T21:42:39.374Z,98971.20
2018-03-07T21:45:06.796Z,98972.95
2018-03-07T21:47:34.203Z,98975.81
2018-03-07T21:50:01.583Z,98978.34
2018-03-07T21:52:28.971Z,98973.88
2018-03-07T21:54:56.363Z,98982.00
2018-03-07T21:57:23.771Z,98985.43
2018-03-07T21:59:51.163Z,98978.64
2018-03-07T22:02:18.578Z,98980.48
2018-03-07T22:04:46.080Z,98982.62
2018-03-07T22:07:13.479Z,98982.56
2018-03-07T22:09:40.885Z,98990.11
2018-03-07T22:12:08.359Z,98985.45
2018-03-07T22:14:35.810Z,98987.42
2018-03-07T22:17:03.198Z,98989.97
2018-03-07T22:19:30.587Z,98987.21
2018-03-07T22:21:58.058Z,98992.08
2018-03-07T22:24:25.496Z,98986.70
2018-03-07T22:26:52.847Z,98989.12
2018-03-07T22:29:20.323Z,98991.11
2018-03-07T22:31:48.413Z,98997.92
2018-03-07T22:34:15.789Z,99004.26
2018-03-07T22:36:43.198Z,98997.09
2018-03-07T22:39:10.583Z,99005.75
2018-03-07T22:41:37.973Z,99001.83
2018-03-07T22:44:05.364Z,98998.45
2018-03-07T22:46:32.762Z,98996.63
2018-03-07T22:49:00.222Z,98999.95
2018-03-07T22:51:27.623Z,98999.39
2018-03-07T22:53:55.050Z,98995.41
2018-03-07T22:56:22.477Z,98996.99
2018-03-07T22:58:49.957Z,99002.86
2018-03-07T23:01:17.366Z,98998.94
2018-03-07T23:03:44.758Z,98996.24
2018-03-07T23:06:12.150Z,98997.00
2018-03-07T23:08:39.539Z,99003.20
2018-03-07T23:11:07.047Z,98998.44
2018-03-07T23:13:34.449Z,99007.19
2018-03-07T23:16:01.840Z,99006.44
2018-03-07T23:18:29.226Z,99009.80
2018-03-07T23:20:56.646Z,99008.07
2018-03-07T23:23:24.030Z,99016.73
2018-03-07T23:25:51.450Z,99016.73
2018-03-07T23:28:18.851Z,99010.45
2018-03-07T23:30:46.256Z,99012.17
2018-03-07T23:33:13.663Z,99015.33
2018-03-07T23:35:41.059Z,99014.39
2018-03-07T23:38:08.453Z,99016.65
2018-03-07T23:40:35.846Z,99013.14
2018-03-07T23:43:03.243Z,99009.59
2018-03-07T23:45:30.718Z,99011.42
2018-03-07T23:47:58.152Z,99013.27
2018-03-07T23:50:25.619Z,99012.58
2018-03-07T23:52:53.015Z,99012.08
2018-03-07T23:55:20.431Z,99006.77
2018-03-07T23:57:47.831Z,99009.36
